LFBX

Périgueux-Bassillac Airport

Airport
ICAO code
LFBX
IATA Code
PGX
Summary
ICAO Region
EUR
ICAO Territory
Location

, Aquitaine

Serving
Perigueux
Elevation
328 ft
Coordinates
45° 11' 53" N , 0° 48' 56" E
Metar
Observation
LFBX 020030Z AUTO VRB02KT 9999 OVC045 07/03 Q1020
Station
Perigueux
Date/Time
2022-12-02 00:30:00
Wind speed
02 kts
Lowest cloud amount
overcast
Temperature
7°C
Dew point
3°C
Humidity
75%
QNH
1020 hPa
Weather condition
n/a

Runways

Designator Length Width Surface Rops
12/30 1750 30 ASP No/No

Airport map

Aerial View

SKYbrary Partners:

Safety knowledge contributed by: